sensor_id;sensor_type;location;lat;lon;timestamp;P1;durP1;ratioP1;P2;durP2;ratioP2
27003;SDS011;14546;47.590;19.022;2022-07-23T00:01:22;8.82;;;4.07;;
27003;SDS011;14546;47.590;19.022;2022-07-23T00:03:49;9.00;;;4.43;;
27003;SDS011;14546;47.590;19.022;2022-07-23T00:06:16;5.35;;;4.35;;
27003;SDS011;14546;47.590;19.022;2022-07-23T00:08:42;4.93;;;4.43;;
27003;SDS011;14546;47.590;19.022;2022-07-23T00:11:08;11.02;;;4.70;;
27003;SDS011;14546;47.590;19.022;2022-07-23T00:13:35;12.68;;;4.47;;
27003;SDS011;14546;47.590;19.022;2022-07-23T00:16:01;6.90;;;4.45;;
27003;SDS011;14546;47.590;19.022;2022-07-23T00:18:27;12.50;;;4.22;;
27003;SDS011;14546;47.590;19.022;2022-07-23T00:20:53;7.65;;;4.18;;
27003;SDS011;14546;47.590;19.022;2022-07-23T00:23:19;7.68;;;4.25;;
27003;SDS011;14546;47.590;19.022;2022-07-23T00:25:45;6.80;;;4.20;;
27003;SDS011;14546;47.590;19.022;2022-07-23T00:28:11;6.90;;;4.03;;
27003;SDS011;14546;47.590;19.022;2022-07-23T00:30:37;6.28;;;4.30;;
27003;SDS011;14546;47.590;19.022;2022-07-23T00:33:05;8.88;;;5.00;;
27003;SDS011;14546;47.590;19.022;2022-07-23T00:35:36;5.57;;;4.30;;
27003;SDS011;14546;47.590;19.022;2022-07-23T00:38:03;5.30;;;4.30;;
27003;SDS011;14546;47.590;19.022;2022-07-23T00:40:30;5.22;;;4.28;;
27003;SDS011;14546;47.590;19.022;2022-07-23T00:42:56;7.28;;;4.38;;
27003;SDS011;14546;47.590;19.022;2022-07-23T00:45:24;8.98;;;4.18;;
27003;SDS011;14546;47.590;19.022;2022-07-23T00:47:50;7.47;;;4.25;;
27003;SDS011;14546;47.590;19.022;2022-07-23T00:50:16;6.90;;;4.40;;
27003;SDS011;14546;47.590;19.022;2022-07-23T00:52:42;6.28;;;4.45;;
27003;SDS011;14546;47.590;19.022;2022-07-23T00:55:08;8.95;;;4.57;;
27003;SDS011;14546;47.590;19.022;2022-07-23T00:57:35;9.35;;;4.88;;
27003;SDS011;14546;47.590;19.022;2022-07-23T01:00:02;10.80;;;4.97;;
27003;SDS011;14546;47.590;19.022;2022-07-23T01:02:28;9.25;;;4.80;;
27003;SDS011;14546;47.590;19.022;2022-07-23T01:04:54;10.00;;;4.35;;
27003;SDS011;14546;47.590;19.022;2022-07-23T01:07:20;6.55;;;4.47;;
27003;SDS011;14546;47.590;19.022;2022-07-23T01:09:47;6.50;;;3.90;;
27003;SDS011;14546;47.590;19.022;2022-07-23T01:12:14;7.68;;;4.63;;
27003;SDS011;14546;47.590;19.022;2022-07-23T01:14:40;12.55;;;4.70;;
27003;SDS011;14546;47.590;19.022;2022-07-23T01:17:06;7.65;;;5.07;;
27003;SDS011;14546;47.590;19.022;2022-07-23T01:19:32;9.18;;;4.70;;
27003;SDS011;14546;47.590;19.022;2022-07-23T01:21:58;6.38;;;4.75;;
27003;SDS011;14546;47.590;19.022;2022-07-23T01:24:26;8.10;;;4.70;;
27003;SDS011;14546;47.590;19.022;2022-07-23T01:26:52;8.45;;;4.47;;
27003;SDS011;14546;47.590;19.022;2022-07-23T01:29:18;5.75;;;3.92;;
27003;SDS011;14546;47.590;19.022;2022-07-23T01:31:46;11.05;;;4.40;;
27003;SDS011;14546;47.590;19.022;2022-07-23T01:34:12;5.85;;;4.15;;
27003;SDS011;14546;47.590;19.022;2022-07-23T01:36:38;4.82;;;4.18;;
27003;SDS011;14546;47.590;19.022;2022-07-23T01:39:06;8.98;;;4.43;;
27003;SDS011;14546;47.590;19.022;2022-07-23T01:41:33;6.97;;;4.50;;
27003;SDS011;14546;47.590;19.022;2022-07-23T01:43:59;9.13;;;4.60;;
27003;SDS011;14546;47.590;19.022;2022-07-23T01:46:25;12.02;;;5.15;;
27003;SDS011;14546;47.590;19.022;2022-07-23T01:48:51;9.52;;;4.47;;
27003;SDS011;14546;47.590;19.022;2022-07-23T01:51:17;9.13;;;4.90;;
27003;SDS011;14546;47.590;19.022;2022-07-23T01:53:43;6.35;;;4.80;;
27003;SDS011;14546;47.590;19.022;2022-07-23T01:56:09;6.60;;;4.43;;
27003;SDS011;14546;47.590;19.022;2022-07-23T01:58:35;7.15;;;4.63;;
27003;SDS011;14546;47.590;19.022;2022-07-23T02:01:01;8.07;;;4.63;;
27003;SDS011;14546;47.590;19.022;2022-07-23T02:03:27;8.73;;;4.38;;
27003;SDS011;14546;47.590;19.022;2022-07-23T02:05:53;8.07;;;4.68;;
27003;SDS011;14546;47.590;19.022;2022-07-23T02:08:19;6.38;;;4.22;;
27003;SDS011;14546;47.590;19.022;2022-07-23T02:10:45;10.90;;;5.50;;
27003;SDS011;14546;47.590;19.022;2022-07-23T02:13:12;7.60;;;4.50;;
27003;SDS011;14546;47.590;19.022;2022-07-23T02:15:38;7.60;;;4.18;;
27003;SDS011;14546;47.590;19.022;2022-07-23T02:18:04;9.07;;;4.50;;
27003;SDS011;14546;47.590;19.022;2022-07-23T02:20:30;9.32;;;4.47;;
27003;SDS011;14546;47.590;19.022;2022-07-23T02:22:56;9.52;;;4.95;;
27003;SDS011;14546;47.590;19.022;2022-07-23T02:25:22;6.50;;;4.75;;
27003;SDS011;14546;47.590;19.022;2022-07-23T02:27:48;8.75;;;4.93;;
27003;SDS011;14546;47.590;19.022;2022-07-23T02:30:15;10.18;;;5.00;;
27003;SDS011;14546;47.590;19.022;2022-07-23T02:32:41;7.38;;;5.10;;
27003;SDS011;14546;47.590;19.022;2022-07-23T02:35:07;9.82;;;4.88;;
27003;SDS011;14546;47.590;19.022;2022-07-23T02:37:33;8.23;;;5.68;;
27003;SDS011;14546;47.590;19.022;2022-07-23T02:39:59;7.68;;;4.65;;
27003;SDS011;14546;47.590;19.022;2022-07-23T02:42:25;10.63;;;5.32;;
27003;SDS011;14546;47.590;19.022;2022-07-23T02:44:51;8.48;;;5.30;;
27003;SDS011;14546;47.590;19.022;2022-07-23T02:47:17;11.00;;;5.93;;
27003;SDS011;14546;47.590;19.022;2022-07-23T02:49:43;13.77;;;5.30;;
27003;SDS011;14546;47.590;19.022;2022-07-23T02:52:09;11.30;;;5.22;;
27003;SDS011;14546;47.590;19.022;2022-07-23T02:54:35;6.95;;;5.82;;
27003;SDS011;14546;47.590;19.022;2022-07-23T02:57:02;12.27;;;5.57;;
27003;SDS011;14546;47.590;19.022;2022-07-23T02:59:28;11.13;;;5.22;;
27003;SDS011;14546;47.590;19.022;2022-07-23T03:01:54;6.43;;;5.00;;
27003;SDS011;14546;47.590;19.022;2022-07-23T03:04:20;10.65;;;5.55;;
27003;SDS011;14546;47.590;19.022;2022-07-23T03:06:46;12.88;;;6.20;;
27003;SDS011;14546;47.590;19.022;2022-07-23T03:09:12;14.23;;;5.80;;
27003;SDS011;14546;47.590;19.022;2022-07-23T03:11:38;9.20;;;6.32;;
27003;SDS011;14546;47.590;19.022;2022-07-23T03:14:04;16.20;;;5.85;;
27003;SDS011;14546;47.590;19.022;2022-07-23T03:16:30;14.38;;;6.00;;
27003;SDS011;14546;47.590;19.022;2022-07-23T03:18:56;23.42;;;6.90;;
27003;SDS011;14546;47.590;19.022;2022-07-23T03:21:22;18.40;;;6.90;;
27003;SDS011;14546;47.590;19.022;2022-07-23T03:23:48;20.85;;;7.07;;
27003;SDS011;14546;47.590;19.022;2022-07-23T03:26:14;15.73;;;5.70;;
27003;SDS011;14546;47.590;19.022;2022-07-23T03:28:40;11.48;;;5.43;;
27003;SDS011;14546;47.590;19.022;2022-07-23T03:31:06;8.48;;;5.10;;
27003;SDS011;14546;47.590;19.022;2022-07-23T03:33:32;12.55;;;5.95;;
27003;SDS011;14546;47.590;19.022;2022-07-23T03:35:59;7.80;;;5.68;;
27003;SDS011;14546;47.590;19.022;2022-07-23T03:38:25;11.40;;;5.45;;
27003;SDS011;14546;47.590;19.022;2022-07-23T03:40:51;9.60;;;5.32;;
27003;SDS011;14546;47.590;19.022;2022-07-23T03:43:17;12.68;;;5.43;;
27003;SDS011;14546;47.590;19.022;2022-07-23T03:45:43;7.55;;;5.03;;
27003;SDS011;14546;47.590;19.022;2022-07-23T03:48:09;5.28;;;4.70;;
27003;SDS011;14546;47.590;19.022;2022-07-23T03:50:35;12.05;;;5.35;;
27003;SDS011;14546;47.590;19.022;2022-07-23T03:53:02;9.98;;;5.30;;
27003;SDS011;14546;47.590;19.022;2022-07-23T03:55:28;13.57;;;5.53;;
27003;SDS011;14546;47.590;19.022;2022-07-23T03:57:54;8.50;;;5.57;;
27003;SDS011;14546;47.590;19.022;2022-07-23T04:00:20;7.85;;;5.00;;
27003;SDS011;14546;47.590;19.022;2022-07-23T04:02:46;7.80;;;5.50;;
27003;SDS011;14546;47.590;19.022;2022-07-23T04:05:12;7.03;;;4.85;;
27003;SDS011;14546;47.590;19.022;2022-07-23T04:07:38;8.00;;;4.85;;
27003;SDS011;14546;47.590;19.022;2022-07-23T04:10:05;8.13;;;5.10;;
27003;SDS011;14546;47.590;19.022;2022-07-23T04:12:31;9.27;;;4.88;;
27003;SDS011;14546;47.590;19.022;2022-07-23T04:14:57;7.80;;;5.13;;
27003;SDS011;14546;47.590;19.022;2022-07-23T04:17:23;8.73;;;5.35;;
27003;SDS011;14546;47.590;19.022;2022-07-23T04:19:50;5.65;;;4.68;;
27003;SDS011;14546;47.590;19.022;2022-07-23T04:22:16;5.00;;;4.50;;
27003;SDS011;14546;47.590;19.022;2022-07-23T04:24:42;10.25;;;5.18;;
27003;SDS011;14546;47.590;19.022;2022-07-23T04:27:08;5.80;;;4.90;;
27003;SDS011;14546;47.590;19.022;2022-07-23T04:29:34;5.95;;;4.80;;
27003;SDS011;14546;47.590;19.022;2022-07-23T04:32:00;11.48;;;5.40;;
27003;SDS011;14546;47.590;19.022;2022-07-23T04:34:26;10.50;;;5.00;;
27003;SDS011;14546;47.590;19.022;2022-07-23T04:36:52;11.57;;;5.25;;
27003;SDS011;14546;47.590;19.022;2022-07-23T04:39:19;9.40;;;4.70;;
27003;SDS011;14546;47.590;19.022;2022-07-23T04:41:45;13.40;;;5.40;;
27003;SDS011;14546;47.590;19.022;2022-07-23T04:44:11;8.70;;;5.43;;
27003;SDS011;14546;47.590;19.022;2022-07-23T04:46:37;16.05;;;5.35;;
27003;SDS011;14546;47.590;19.022;2022-07-23T04:49:03;9.80;;;4.90;;
27003;SDS011;14546;47.590;19.022;2022-07-23T04:51:29;7.97;;;4.97;;
27003;SDS011;14546;47.590;19.022;2022-07-23T04:53:55;6.40;;;4.82;;
27003;SDS011;14546;47.590;19.022;2022-07-23T04:56:21;8.52;;;5.10;;
27003;SDS011;14546;47.590;19.022;2022-07-23T04:58:47;7.78;;;5.57;;
27003;SDS011;14546;47.590;19.022;2022-07-23T05:01:13;9.02;;;4.97;;
27003;SDS011;14546;47.590;19.022;2022-07-23T05:03:39;6.03;;;4.70;;
27003;SDS011;14546;47.590;19.022;2022-07-23T05:06:05;5.55;;;4.75;;
27003;SDS011;14546;47.590;19.022;2022-07-23T05:08:31;5.25;;;4.68;;
27003;SDS011;14546;47.590;19.022;2022-07-23T05:10:58;7.65;;;4.88;;
27003;SDS011;14546;47.590;19.022;2022-07-23T05:13:24;7.55;;;4.88;;
27003;SDS011;14546;47.590;19.022;2022-07-23T05:15:50;6.20;;;4.70;;
27003;SDS011;14546;47.590;19.022;2022-07-23T05:18:16;8.77;;;4.70;;
27003;SDS011;14546;47.590;19.022;2022-07-23T05:20:42;7.45;;;4.75;;
27003;SDS011;14546;47.590;19.022;2022-07-23T05:23:08;6.15;;;4.38;;
27003;SDS011;14546;47.590;19.022;2022-07-23T05:25:35;9.63;;;4.30;;
27003;SDS011;14546;47.590;19.022;2022-07-23T05:28:01;7.07;;;4.50;;
27003;SDS011;14546;47.590;19.022;2022-07-23T05:30:27;5.53;;;4.47;;
27003;SDS011;14546;47.590;19.022;2022-07-23T05:32:53;10.93;;;4.50;;
27003;SDS011;14546;47.590;19.022;2022-07-23T05:35:19;7.75;;;4.25;;
27003;SDS011;14546;47.590;19.022;2022-07-23T05:37:45;6.88;;;4.13;;
27003;SDS011;14546;47.590;19.022;2022-07-23T05:40:11;10.15;;;3.95;;
27003;SDS011;14546;47.590;19.022;2022-07-23T05:42:38;13.38;;;3.97;;
27003;SDS011;14546;47.590;19.022;2022-07-23T05:45:04;5.03;;;3.58;;
27003;SDS011;14546;47.590;19.022;2022-07-23T05:47:48;15.00;;;3.45;;
27003;SDS011;14546;47.590;19.022;2022-07-23T05:50:15;8.88;;;3.80;;
27003;SDS011;14546;47.590;19.022;2022-07-23T05:52:41;6.72;;;3.28;;
27003;SDS011;14546;47.590;19.022;2022-07-23T05:55:08;8.88;;;3.92;;
27003;SDS011;14546;47.590;19.022;2022-07-23T05:57:34;6.07;;;3.58;;
27003;SDS011;14546;47.590;19.022;2022-07-23T06:00:01;12.57;;;3.83;;
27003;SDS011;14546;47.590;19.022;2022-07-23T06:02:28;11.65;;;3.65;;
27003;SDS011;14546;47.590;19.022;2022-07-23T06:04:54;9.50;;;4.35;;
27003;SDS011;14546;47.590;19.022;2022-07-23T06:07:19;6.40;;;3.85;;
27003;SDS011;14546;47.590;19.022;2022-07-23T06:09:45;7.95;;;4.07;;
27003;SDS011;14546;47.590;19.022;2022-07-23T06:12:12;8.02;;;3.88;;
27003;SDS011;14546;47.590;19.022;2022-07-23T06:14:38;12.77;;;3.70;;
27003;SDS011;14546;47.590;19.022;2022-07-23T06:17:03;5.68;;;3.63;;
27003;SDS011;14546;47.590;19.022;2022-07-23T06:19:29;15.38;;;3.90;;
27003;SDS011;14546;47.590;19.022;2022-07-23T06:21:54;10.35;;;4.85;;
27003;SDS011;14546;47.590;19.022;2022-07-23T06:24:20;8.68;;;4.45;;
27003;SDS011;14546;47.590;19.022;2022-07-23T06:26:46;11.13;;;3.85;;
27003;SDS011;14546;47.590;19.022;2022-07-23T06:29:11;9.02;;;4.10;;
27003;SDS011;14546;47.590;19.022;2022-07-23T06:31:37;8.00;;;4.18;;
27003;SDS011;14546;47.590;19.022;2022-07-23T06:34:03;9.15;;;3.78;;
27003;SDS011;14546;47.590;19.022;2022-07-23T06:36:28;8.80;;;4.35;;
27003;SDS011;14546;47.590;19.022;2022-07-23T06:38:54;12.10;;;4.22;;
27003;SDS011;14546;47.590;19.022;2022-07-23T06:41:20;18.08;;;4.20;;
27003;SDS011;14546;47.590;19.022;2022-07-23T06:43:45;10.27;;;4.38;;
27003;SDS011;14546;47.590;19.022;2022-07-23T06:46:11;10.38;;;4.15;;
27003;SDS011;14546;47.590;19.022;2022-07-23T06:48:36;7.75;;;3.85;;
27003;SDS011;14546;47.590;19.022;2022-07-23T06:51:02;8.15;;;3.75;;
27003;SDS011;14546;47.590;19.022;2022-07-23T06:53:28;7.68;;;4.22;;
27003;SDS011;14546;47.590;19.022;2022-07-23T06:55:54;10.75;;;4.57;;
27003;SDS011;14546;47.590;19.022;2022-07-23T06:58:20;10.35;;;4.35;;
27003;SDS011;14546;47.590;19.022;2022-07-23T07:00:45;7.30;;;3.85;;
27003;SDS011;14546;47.590;19.022;2022-07-23T07:03:11;7.75;;;4.40;;
27003;SDS011;14546;47.590;19.022;2022-07-23T07:05:37;11.90;;;4.10;;
27003;SDS011;14546;47.590;19.022;2022-07-23T07:08:04;6.93;;;4.00;;
27003;SDS011;14546;47.590;19.022;2022-07-23T07:10:30;8.80;;;4.22;;
27003;SDS011;14546;47.590;19.022;2022-07-23T07:12:56;11.45;;;4.15;;
27003;SDS011;14546;47.590;19.022;2022-07-23T07:15:22;7.53;;;3.47;;
27003;SDS011;14546;47.590;19.022;2022-07-23T07:17:47;6.95;;;3.75;;
27003;SDS011;14546;47.590;19.022;2022-07-23T07:20:13;10.13;;;4.22;;
27003;SDS011;14546;47.590;19.022;2022-07-23T07:22:39;13.90;;;4.03;;
27003;SDS011;14546;47.590;19.022;2022-07-23T07:25:05;12.15;;;4.22;;
27003;SDS011;14546;47.590;19.022;2022-07-23T07:27:31;9.60;;;3.88;;
27003;SDS011;14546;47.590;19.022;2022-07-23T07:29:57;8.07;;;3.50;;
27003;SDS011;14546;47.590;19.022;2022-07-23T07:32:22;13.70;;;4.25;;
27003;SDS011;14546;47.590;19.022;2022-07-23T07:34:48;9.20;;;3.88;;
27003;SDS011;14546;47.590;19.022;2022-07-23T07:37:14;9.45;;;4.10;;
27003;SDS011;14546;47.590;19.022;2022-07-23T07:39:39;10.45;;;3.88;;
27003;SDS011;14546;47.590;19.022;2022-07-23T07:42:05;8.73;;;3.55;;
27003;SDS011;14546;47.590;19.022;2022-07-23T07:44:30;7.28;;;3.30;;
27003;SDS011;14546;47.590;19.022;2022-07-23T07:46:56;23.73;;;4.05;;
27003;SDS011;14546;47.590;19.022;2022-07-23T07:49:22;7.88;;;4.03;;
27003;SDS011;14546;47.590;19.022;2022-07-23T07:51:48;10.20;;;3.80;;
27003;SDS011;14546;47.590;19.022;2022-07-23T07:54:14;7.78;;;3.33;;
27003;SDS011;14546;47.590;19.022;2022-07-23T07:56:40;7.18;;;3.20;;
27003;SDS011;14546;47.590;19.022;2022-07-23T07:59:06;8.30;;;3.55;;
27003;SDS011;14546;47.590;19.022;2022-07-23T08:01:31;7.80;;;3.53;;
27003;SDS011;14546;47.590;19.022;2022-07-23T08:03:57;9.18;;;3.50;;
27003;SDS011;14546;47.590;19.022;2022-07-23T08:06:23;13.95;;;4.20;;
27003;SDS011;14546;47.590;19.022;2022-07-23T08:08:48;8.15;;;3.83;;
27003;SDS011;14546;47.590;19.022;2022-07-23T08:11:14;7.38;;;3.13;;
27003;SDS011;14546;47.590;19.022;2022-07-23T08:13:40;6.78;;;3.45;;
27003;SDS011;14546;47.590;19.022;2022-07-23T08:16:06;7.57;;;3.25;;
27003;SDS011;14546;47.590;19.022;2022-07-23T08:18:32;6.60;;;3.33;;
27003;SDS011;14546;47.590;19.022;2022-07-23T08:20:57;6.32;;;3.60;;
27003;SDS011;14546;47.590;19.022;2022-07-23T08:23:23;8.98;;;3.45;;
27003;SDS011;14546;47.590;19.022;2022-07-23T08:25:48;7.93;;;3.67;;
27003;SDS011;14546;47.590;19.022;2022-07-23T08:28:15;6.50;;;3.45;;
27003;SDS011;14546;47.590;19.022;2022-07-23T08:30:42;14.40;;;4.30;;
27003;SDS011;14546;47.590;19.022;2022-07-23T08:33:09;7.60;;;3.85;;
27003;SDS011;14546;47.590;19.022;2022-07-23T08:35:41;7.93;;;3.92;;
27003;SDS011;14546;47.590;19.022;2022-07-23T08:38:09;12.50;;;3.92;;
27003;SDS011;14546;47.590;19.022;2022-07-23T08:40:36;11.45;;;3.53;;
27003;SDS011;14546;47.590;19.022;2022-07-23T08:43:07;9.10;;;3.70;;
27003;SDS011;14546;47.590;19.022;2022-07-23T08:45:37;5.03;;;2.97;;
27003;SDS011;14546;47.590;19.022;2022-07-23T08:48:04;9.40;;;3.40;;
27003;SDS011;14546;47.590;19.022;2022-07-23T08:50:31;8.13;;;3.40;;
27003;SDS011;14546;47.590;19.022;2022-07-23T08:52:58;4.10;;;2.67;;
27003;SDS011;14546;47.590;19.022;2022-07-23T08:55:24;10.30;;;3.60;;
27003;SDS011;14546;47.590;19.022;2022-07-23T08:57:51;11.90;;;3.22;;
27003;SDS011;14546;47.590;19.022;2022-07-23T09:00:18;7.82;;;3.40;;
27003;SDS011;14546;47.590;19.022;2022-07-23T09:02:45;13.68;;;3.63;;
27003;SDS011;14546;47.590;19.022;2022-07-23T09:05:11;4.70;;;3.28;;
27003;SDS011;14546;47.590;19.022;2022-07-23T09:07:38;8.85;;;3.80;;
27003;SDS011;14546;47.590;19.022;2022-07-23T09:10:23;11.52;;;3.42;;
27003;SDS011;14546;47.590;19.022;2022-07-23T09:12:49;16.67;;;3.80;;
27003;SDS011;14546;47.590;19.022;2022-07-23T09:15:15;11.02;;;3.75;;
27003;SDS011;14546;47.590;19.022;2022-07-23T09:17:42;8.77;;;3.50;;
27003;SDS011;14546;47.590;19.022;2022-07-23T09:20:10;12.10;;;3.63;;
27003;SDS011;14546;47.590;19.022;2022-07-23T09:22:36;8.38;;;3.47;;
27003;SDS011;14546;47.590;19.022;2022-07-23T09:27:51;10.48;;;3.65;;
27003;SDS011;14546;47.590;19.022;2022-07-23T09:30:18;6.82;;;3.63;;
27003;SDS011;14546;47.590;19.022;2022-07-23T09:32:44;8.25;;;3.63;;
27003;SDS011;14546;47.590;19.022;2022-07-23T09:38:10;8.05;;;3.75;;
27003;SDS011;14546;47.590;19.022;2022-07-23T09:40:36;7.70;;;3.40;;
27003;SDS011;14546;47.590;19.022;2022-07-23T09:43:02;6.32;;;3.13;;
27003;SDS011;14546;47.590;19.022;2022-07-23T09:45:28;8.05;;;3.35;;
27003;SDS011;14546;47.590;19.022;2022-07-23T09:48:16;10.15;;;3.65;;
27003;SDS011;14546;47.590;19.022;2022-07-23T09:50:43;10.82;;;3.40;;
27003;SDS011;14546;47.590;19.022;2022-07-23T09:53:10;8.38;;;3.30;;
27003;SDS011;14546;47.590;19.022;2022-07-23T09:55:49;13.93;;;3.95;;
27003;SDS011;14546;47.590;19.022;2022-07-23T09:58:15;6.97;;;3.22;;
27003;SDS011;14546;47.590;19.022;2022-07-23T10:00:42;9.68;;;3.35;;
27003;SDS011;14546;47.590;19.022;2022-07-23T10:03:09;9.07;;;3.20;;
27003;SDS011;14546;47.590;19.022;2022-07-23T10:05:36;5.43;;;3.00;;
27003;SDS011;14546;47.590;19.022;2022-07-23T10:08:03;7.10;;;3.42;;
27003;SDS011;14546;47.590;19.022;2022-07-23T10:10:29;8.43;;;3.17;;
27003;SDS011;14546;47.590;19.022;2022-07-23T10:12:56;5.00;;;3.20;;
27003;SDS011;14546;47.590;19.022;2022-07-23T10:15:34;7.28;;;3.17;;
27003;SDS011;14546;47.590;19.022;2022-07-23T10:18:00;6.45;;;3.17;;
27003;SDS011;14546;47.590;19.022;2022-07-23T10:20:26;10.15;;;3.33;;
27003;SDS011;14546;47.590;19.022;2022-07-23T10:23:10;6.50;;;2.70;;
27003;SDS011;14546;47.590;19.022;2022-07-23T10:25:41;6.93;;;3.30;;
27003;SDS011;14546;47.590;19.022;2022-07-23T10:30:52;5.97;;;3.80;;
27003;SDS011;14546;47.590;19.022;2022-07-23T10:38:24;5.93;;;3.30;;
27003;SDS011;14546;47.590;19.022;2022-07-23T10:40:58;7.38;;;3.20;;
27003;SDS011;14546;47.590;19.022;2022-07-23T10:43:25;3.58;;;2.90;;
27003;SDS011;14546;47.590;19.022;2022-07-23T10:45:51;5.50;;;3.03;;
27003;SDS011;14546;47.590;19.022;2022-07-23T10:50:44;7.97;;;3.38;;
27003;SDS011;14546;47.590;19.022;2022-07-23T10:58:04;5.63;;;3.55;;
27003;SDS011;14546;47.590;19.022;2022-07-23T11:00:34;7.50;;;3.30;;
27003;SDS011;14546;47.590;19.022;2022-07-23T11:03:01;18.27;;;3.67;;
27003;SDS011;14546;47.590;19.022;2022-07-23T11:05:44;3.63;;;3.22;;
27003;SDS011;14546;47.590;19.022;2022-07-23T11:10:38;6.72;;;3.75;;
27003;SDS011;14546;47.590;19.022;2022-07-23T11:32:24;9.80;;;3.50;;
27003;SDS011;14546;47.590;19.022;2022-07-23T11:34:49;10.35;;;3.90;;
27003;SDS011;14546;47.590;19.022;2022-07-23T11:37:29;6.93;;;3.50;;
27003;SDS011;14546;47.590;19.022;2022-07-23T11:39:57;11.82;;;3.22;;
27003;SDS011;14546;47.590;19.022;2022-07-23T11:42:23;11.07;;;3.00;;
27003;SDS011;14546;47.590;19.022;2022-07-23T11:44:50;5.78;;;3.03;;
27003;SDS011;14546;47.590;19.022;2022-07-23T11:47:20;7.53;;;3.38;;
27003;SDS011;14546;47.590;19.022;2022-07-23T11:52:19;8.65;;;3.75;;
27003;SDS011;14546;47.590;19.022;2022-07-23T11:57:14;10.20;;;3.75;;
27003;SDS011;14546;47.590;19.022;2022-07-23T11:59:40;7.70;;;3.45;;
27003;SDS011;14546;47.590;19.022;2022-07-23T12:02:07;11.18;;;3.45;;
27003;SDS011;14546;47.590;19.022;2022-07-23T12:04:40;4.60;;;3.72;;
27003;SDS011;14546;47.590;19.022;2022-07-23T12:07:25;11.20;;;4.18;;
27003;SDS011;14546;47.590;19.022;2022-07-23T12:09:52;4.30;;;3.33;;
27003;SDS011;14546;47.590;19.022;2022-07-23T12:12:18;6.65;;;3.65;;
27003;SDS011;14546;47.590;19.022;2022-07-23T12:14:51;6.07;;;3.40;;
27003;SDS011;14546;47.590;19.022;2022-07-23T12:17:18;7.72;;;3.63;;
27003;SDS011;14546;47.590;19.022;2022-07-23T12:19:45;4.07;;;3.20;;
27003;SDS011;14546;47.590;19.022;2022-07-23T12:22:11;10.90;;;3.80;;
27003;SDS011;14546;47.590;19.022;2022-07-23T12:24:53;5.85;;;3.30;;
27003;SDS011;14546;47.590;19.022;2022-07-23T12:27:20;8.68;;;3.33;;
27003;SDS011;14546;47.590;19.022;2022-07-23T12:29:46;8.38;;;3.35;;
27003;SDS011;14546;47.590;19.022;2022-07-23T12:32:25;14.95;;;3.40;;
27003;SDS011;14546;47.590;19.022;2022-07-23T12:35:02;4.70;;;3.03;;
27003;SDS011;14546;47.590;19.022;2022-07-23T12:37:29;4.22;;;3.00;;
27003;SDS011;14546;47.590;19.022;2022-07-23T12:39:56;11.85;;;3.08;;
27003;SDS011;14546;47.590;19.022;2022-07-23T12:42:23;4.15;;;2.70;;
27003;SDS011;14546;47.590;19.022;2022-07-23T12:47:54;7.43;;;3.45;;
27003;SDS011;14546;47.590;19.022;2022-07-23T12:53:05;6.20;;;3.03;;
27003;SDS011;14546;47.590;19.022;2022-07-23T12:55:31;4.72;;;3.22;;
27003;SDS011;14546;47.590;19.022;2022-07-23T12:58:11;3.95;;;2.95;;
27003;SDS011;14546;47.590;19.022;2022-07-23T13:03:32;7.82;;;4.10;;
27003;SDS011;14546;47.590;19.022;2022-07-23T13:05:59;6.03;;;3.78;;
27003;SDS011;14546;47.590;19.022;2022-07-23T13:08:26;8.93;;;3.38;;
27003;SDS011;14546;47.590;19.022;2022-07-23T13:10:53;5.07;;;3.13;;
27003;SDS011;14546;47.590;19.022;2022-07-23T13:13:23;4.95;;;3.25;;
27003;SDS011;14546;47.590;19.022;2022-07-23T13:15:49;5.97;;;3.20;;
27003;SDS011;14546;47.590;19.022;2022-07-23T13:18:15;7.38;;;3.50;;
27003;SDS011;14546;47.590;19.022;2022-07-23T13:20:42;4.50;;;3.53;;
27003;SDS011;14546;47.590;19.022;2022-07-23T13:23:08;12.65;;;3.80;;
27003;SDS011;14546;47.590;19.022;2022-07-23T13:25:34;5.55;;;3.53;;
27003;SDS011;14546;47.590;19.022;2022-07-23T13:28:00;7.63;;;3.35;;
27003;SDS011;14546;47.590;19.022;2022-07-23T13:30:27;8.27;;;3.67;;
27003;SDS011;14546;47.590;19.022;2022-07-23T13:32:53;5.65;;;3.10;;
27003;SDS011;14546;47.590;19.022;2022-07-23T13:35:19;6.70;;;3.38;;
27003;SDS011;14546;47.590;19.022;2022-07-23T13:37:45;8.57;;;3.05;;
27003;SDS011;14546;47.590;19.022;2022-07-23T13:40:11;4.72;;;3.33;;
27003;SDS011;14546;47.590;19.022;2022-07-23T13:42:37;7.85;;;3.25;;
27003;SDS011;14546;47.590;19.022;2022-07-23T13:45:04;10.07;;;3.65;;
27003;SDS011;14546;47.590;19.022;2022-07-23T13:47:30;10.07;;;3.42;;
27003;SDS011;14546;47.590;19.022;2022-07-23T13:49:56;8.57;;;2.90;;
27003;SDS011;14546;47.590;19.022;2022-07-23T13:52:22;11.48;;;3.42;;
27003;SDS011;14546;47.590;19.022;2022-07-23T13:54:49;8.00;;;3.35;;
27003;SDS011;14546;47.590;19.022;2022-07-23T13:57:15;6.85;;;3.20;;
27003;SDS011;14546;47.590;19.022;2022-07-23T13:59:41;5.78;;;3.15;;
27003;SDS011;14546;47.590;19.022;2022-07-23T14:02:07;6.82;;;2.88;;
27003;SDS011;14546;47.590;19.022;2022-07-23T14:04:33;12.65;;;3.00;;
27003;SDS011;14546;47.590;19.022;2022-07-23T14:06:59;10.80;;;2.90;;
27003;SDS011;14546;47.590;19.022;2022-07-23T14:09:25;8.32;;;3.45;;
27003;SDS011;14546;47.590;19.022;2022-07-23T14:11:52;8.52;;;2.72;;
27003;SDS011;14546;47.590;19.022;2022-07-23T14:14:18;5.90;;;2.85;;
27003;SDS011;14546;47.590;19.022;2022-07-23T14:16:44;7.15;;;2.85;;
27003;SDS011;14546;47.590;19.022;2022-07-23T14:19:10;7.30;;;2.80;;
27003;SDS011;14546;47.590;19.022;2022-07-23T14:21:37;11.05;;;2.92;;
27003;SDS011;14546;47.590;19.022;2022-07-23T14:24:03;7.38;;;2.72;;
27003;SDS011;14546;47.590;19.022;2022-07-23T14:26:29;5.53;;;2.58;;
27003;SDS011;14546;47.590;19.022;2022-07-23T14:28:55;7.35;;;2.90;;
27003;SDS011;14546;47.590;19.022;2022-07-23T14:31:21;3.97;;;2.80;;
27003;SDS011;14546;47.590;19.022;2022-07-23T14:33:48;7.38;;;2.63;;
27003;SDS011;14546;47.590;19.022;2022-07-23T14:36:14;13.30;;;3.20;;
27003;SDS011;14546;47.590;19.022;2022-07-23T14:38:41;6.70;;;3.20;;
27003;SDS011;14546;47.590;19.022;2022-07-23T14:41:07;5.72;;;2.90;;
27003;SDS011;14546;47.590;19.022;2022-07-23T14:43:33;8.63;;;3.10;;
27003;SDS011;14546;47.590;19.022;2022-07-23T14:45:59;15.25;;;3.35;;
27003;SDS011;14546;47.590;19.022;2022-07-23T14:48:26;6.35;;;3.33;;
27003;SDS011;14546;47.590;19.022;2022-07-23T14:50:52;8.57;;;3.13;;
27003;SDS011;14546;47.590;19.022;2022-07-23T14:53:18;6.82;;;3.00;;
27003;SDS011;14546;47.590;19.022;2022-07-23T14:55:44;4.43;;;3.13;;
27003;SDS011;14546;47.590;19.022;2022-07-23T14:58:10;5.63;;;2.92;;
27003;SDS011;14546;47.590;19.022;2022-07-23T15:00:36;6.40;;;3.13;;
27003;SDS011;14546;47.590;19.022;2022-07-23T15:03:02;6.13;;;3.10;;
27003;SDS011;14546;47.590;19.022;2022-07-23T15:05:28;7.55;;;3.50;;
27003;SDS011;14546;47.590;19.022;2022-07-23T15:07:55;5.00;;;3.10;;
27003;SDS011;14546;47.590;19.022;2022-07-23T15:10:21;6.20;;;3.38;;
27003;SDS011;14546;47.590;19.022;2022-07-23T15:12:47;4.75;;;3.17;;
27003;SDS011;14546;47.590;19.022;2022-07-23T15:15:12;5.38;;;3.28;;
27003;SDS011;14546;47.590;19.022;2022-07-23T15:17:39;5.28;;;2.97;;
27003;SDS011;14546;47.590;19.022;2022-07-23T15:20:04;8.23;;;3.03;;
27003;SDS011;14546;47.590;19.022;2022-07-23T15:22:31;4.35;;;3.20;;
27003;SDS011;14546;47.590;19.022;2022-07-23T15:24:56;4.38;;;3.45;;